createdAt,value
2023-05-25T00:01:00.575Z,5.60
2023-05-25T00:03:32.588Z,6.70
2023-05-25T00:06:01.847Z,7.80
2023-05-25T00:08:30.036Z,6.50
2023-05-25T00:10:58.273Z,9.10
2023-05-25T00:13:26.258Z,8.70
2023-05-25T00:15:54.385Z,4.90
2023-05-25T00:18:22.419Z,9.90
2023-05-25T00:20:54.187Z,5.10
2023-05-25T00:23:22.330Z,6.20
2023-05-25T00:25:50.518Z,3.60
2023-05-25T00:28:18.523Z,8.30
2023-05-25T00:30:46.489Z,5.50
2023-05-25T00:33:15.889Z,8.90
2023-05-25T00:35:44.774Z,6.80
2023-05-25T00:38:14.487Z,5.50
2023-05-25T00:40:42.550Z,5.10
2023-05-25T00:43:11.816Z,6.70
2023-05-25T00:45:39.938Z,8.50
2023-05-25T00:48:09.025Z,8.80
2023-05-25T00:50:41.922Z,5.00
2023-05-25T00:53:13.462Z,7.40
2023-05-25T00:55:41.598Z,4.10
2023-05-25T00:58:11.720Z,6.60
2023-05-25T01:00:42.547Z,3.90
2023-05-25T01:03:18.020Z,7.90
2023-05-25T01:05:48.719Z,4.60
2023-05-25T01:08:17.930Z,4.90
2023-05-25T01:10:49.466Z,5.40
2023-05-25T01:13:19.614Z,9.20
2023-05-25T01:15:48.513Z,5.50
2023-05-25T01:18:18.111Z,5.70
2023-05-25T01:21:14.935Z,11.20
2023-05-25T01:24:25.968Z,5.80
2023-05-25T01:27:02.180Z,4.40
2023-05-25T01:29:33.307Z,8.40
2023-05-25T01:32:03.800Z,4.70
2023-05-25T01:34:32.765Z,6.60
2023-05-25T01:37:01.441Z,4.80
2023-05-25T01:39:29.487Z,4.80
2023-05-25T01:41:57.499Z,7.10
2023-05-25T01:44:26.586Z,4.70
2023-05-25T01:47:03.362Z,5.90
2023-05-25T01:50:07.834Z,7.20
2023-05-25T01:52:42.102Z,8.10
2023-05-25T01:55:18.959Z,5.00
2023-05-25T01:57:51.104Z,4.40
2023-05-25T02:00:21.374Z,6.40
2023-05-25T02:02:52.125Z,5.80
2023-05-25T02:05:21.361Z,4.90
2023-05-25T02:07:49.665Z,5.30
2023-05-25T02:10:18.395Z,7.40
2023-05-25T02:12:46.358Z,3.60
2023-05-25T02:15:16.286Z,5.30
2023-05-25T02:17:44.619Z,5.70
2023-05-25T02:20:13.481Z,6.90
2023-05-25T02:22:41.552Z,7.60
2023-05-25T02:25:09.792Z,4.40
2023-05-25T02:27:37.933Z,3.90
2023-05-25T02:30:07.847Z,4.60
2023-05-25T02:32:36.101Z,6.00
2023-05-25T02:35:04.558Z,4.70
2023-05-25T02:37:32.894Z,5.20
2023-05-25T02:40:01.132Z,3.70
2023-05-25T02:42:29.187Z,5.30
2023-05-25T02:44:57.261Z,3.40
2023-05-25T02:47:26.331Z,5.20
2023-05-25T02:49:54.462Z,3.70
2023-05-25T02:52:22.722Z,4.00
2023-05-25T02:54:50.801Z,3.60
2023-05-25T02:57:29.207Z,4.60
2023-05-25T02:59:57.707Z,5.30
2023-05-25T03:02:25.895Z,5.60
2023-05-25T03:04:54.609Z,6.50
2023-05-25T03:07:23.210Z,7.30
2023-05-25T03:09:51.926Z,3.50
2023-05-25T03:12:20.068Z,5.70
2023-05-25T03:14:48.171Z,5.70
2023-05-25T03:17:17.705Z,6.30
2023-05-25T03:19:46.291Z,6.20
2023-05-25T03:22:14.488Z,4.60
2023-05-25T03:24:45.223Z,5.20
2023-05-25T03:27:13.336Z,5.80
2023-05-25T03:29:41.482Z,8.50
2023-05-25T03:32:10.321Z,7.10
2023-05-25T03:34:40.343Z,7.10
2023-05-25T03:37:08.580Z,6.10
2023-05-25T03:39:36.839Z,5.40
2023-05-25T03:42:05.214Z,4.00
2023-05-25T03:44:33.737Z,6.00
2023-05-25T03:47:01.891Z,4.80
2023-05-25T03:49:30.591Z,9.50
2023-05-25T03:52:01.306Z,7.10
2023-05-25T03:54:29.487Z,4.40
2023-05-25T03:56:58.937Z,5.50
2023-05-25T03:59:27.027Z,6.40
2023-05-25T04:01:55.122Z,7.10
2023-05-25T04:04:23.542Z,3.60
2023-05-25T04:06:52.011Z,7.90
2023-05-25T04:09:20.143Z,5.20
2023-05-25T04:11:48.101Z,4.70
2023-05-25T04:14:16.991Z,5.10
2023-05-25T04:16:46.381Z,4.80
2023-05-25T04:19:15.948Z,7.60
2023-05-25T04:21:44.085Z,5.50
2023-05-25T04:24:13.024Z,4.60
2023-05-25T04:26:41.649Z,7.10
2023-05-25T04:29:10.273Z,3.90
2023-05-25T04:31:51.585Z,5.10
2023-05-25T04:34:38.273Z,3.60
2023-05-25T04:37:16.070Z,4.40
2023-05-25T04:39:44.020Z,3.00
2023-05-25T04:42:12.915Z,4.90
2023-05-25T04:44:41.089Z,5.30
2023-05-25T04:47:09.460Z,4.20
2023-05-25T04:49:38.451Z,7.30
2023-05-25T04:52:07.570Z,12.50
2023-05-25T04:54:36.213Z,6.50
2023-05-25T04:57:04.643Z,5.10
2023-05-25T04:59:33.207Z,6.30
2023-05-25T05:02:01.581Z,5.70
2023-05-25T05:04:30.590Z,4.70
2023-05-25T05:07:00.022Z,4.70
2023-05-25T05:09:30.455Z,3.80
2023-05-25T05:12:01.867Z,7.40
2023-05-25T05:14:31.746Z,4.50
2023-05-25T05:16:59.933Z,6.30
2023-05-25T05:19:28.538Z,5.90
2023-05-25T05:21:57.012Z,8.00
2023-05-25T05:24:27.442Z,5.00
2023-05-25T05:26:58.953Z,6.10
2023-05-25T05:29:37.724Z,4.20
2023-05-25T05:32:06.360Z,6.60
2023-05-25T05:34:35.181Z,6.00
2023-05-25T05:37:07.683Z,3.50
2023-05-25T05:39:37.033Z,5.00
2023-05-25T05:42:06.953Z,5.20
2023-05-25T05:44:35.823Z,6.60
2023-05-25T05:47:04.305Z,4.90
2023-05-25T05:49:34.362Z,6.30
2023-05-25T05:52:04.184Z,3.30
2023-05-25T05:54:32.159Z,4.80
2023-05-25T05:57:06.603Z,4.90
2023-05-25T05:59:34.795Z,5.40
2023-05-25T06:02:02.812Z,5.00
2023-05-25T06:04:30.893Z,3.80
2023-05-25T06:06:59.241Z,4.90
2023-05-25T06:09:27.301Z,6.30
2023-05-25T06:11:56.598Z,7.10
2023-05-25T06:14:26.067Z,6.10
2023-05-25T06:16:55.726Z,9.50
2023-05-25T06:19:25.659Z,5.30
2023-05-25T06:21:53.688Z,5.30
2023-05-25T06:24:22.404Z,4.30
2023-05-25T06:26:50.705Z,6.80
2023-05-25T06:29:19.083Z,3.90
2023-05-25T06:31:47.080Z,6.30
2023-05-25T06:34:15.208Z,7.20
2023-05-25T06:36:43.627Z,4.80
2023-05-25T06:39:11.553Z,4.90
2023-05-25T06:41:40.630Z,4.00
2023-05-25T06:44:09.063Z,3.70
2023-05-25T06:46:47.380Z,6.90
2023-05-25T06:49:16.207Z,4.30
2023-05-25T06:51:44.315Z,6.10
2023-05-25T06:54:14.992Z,5.40
2023-05-25T06:56:43.103Z,6.20
2023-05-25T06:59:11.092Z,5.60
2023-05-25T07:01:39.143Z,6.70
2023-05-25T07:04:07.075Z,5.90
2023-05-25T07:06:35.044Z,5.80
2023-05-25T07:09:03.284Z,4.40
2023-05-25T07:11:31.186Z,6.00
2023-05-25T07:13:59.106Z,5.30
2023-05-25T07:16:27.112Z,4.10
2023-05-25T07:18:55.027Z,8.10
2023-05-25T07:21:23.119Z,6.20
2023-05-25T07:23:51.265Z,4.00
2023-05-25T07:26:23.039Z,3.70
2023-05-25T07:28:50.884Z,2.90
2023-05-25T07:31:18.899Z,6.20
2023-05-25T07:33:46.919Z,6.10
2023-05-25T07:36:15.278Z,3.30
2023-05-25T07:38:43.407Z,3.70
2023-05-25T07:41:13.486Z,4.90
2023-05-25T07:43:41.574Z,4.40
2023-05-25T07:46:09.599Z,5.70
2023-05-25T07:48:37.864Z,3.40
2023-05-25T07:51:05.967Z,6.30
2023-05-25T07:53:33.920Z,3.90
2023-05-25T07:56:02.470Z,4.80
2023-05-25T07:58:30.474Z,3.80
2023-05-25T08:01:00.046Z,3.80
2023-05-25T08:03:39.699Z,2.70
2023-05-25T08:06:16.001Z,3.90
2023-05-25T08:08:47.361Z,5.20
2023-05-25T08:11:17.256Z,4.30
2023-05-25T08:13:45.376Z,4.20
2023-05-25T08:16:13.379Z,2.80
2023-05-25T08:18:44.320Z,4.60
2023-05-25T08:21:13.699Z,4.20
2023-05-25T08:23:42.864Z,4.40
2023-05-25T08:26:31.285Z,6.70
2023-05-25T08:29:00.923Z,5.90
2023-05-25T08:31:29.126Z,5.60
2023-05-25T08:33:57.164Z,3.90
2023-05-25T08:36:29.265Z,5.40
2023-05-25T08:38:57.262Z,6.40
2023-05-25T08:41:25.953Z,5.80
2023-05-25T08:43:54.287Z,4.70
2023-05-25T08:46:31.467Z,5.70
2023-05-25T08:49:05.687Z,3.90
2023-05-25T08:51:39.646Z,9.20
2023-05-25T08:54:13.430Z,3.00
2023-05-25T08:56:53.503Z,7.70
2023-05-25T08:59:45.893Z,4.00
2023-05-25T09:02:40.480Z,6.80
2023-05-25T09:05:09.542Z,5.90
2023-05-25T09:07:37.691Z,6.40
2023-05-25T09:10:09.024Z,4.10
2023-05-25T09:12:38.553Z,4.10
2023-05-25T09:15:07.056Z,6.30
2023-05-25T09:17:38.023Z,7.20
2023-05-25T09:22:35.741Z,8.00
2023-05-25T09:25:08.559Z,6.70
2023-05-25T09:27:40.609Z,9.00
2023-05-25T09:30:09.458Z,5.90
2023-05-25T09:32:38.725Z,5.90
2023-05-25T09:35:11.189Z,4.00
2023-05-25T09:37:40.324Z,5.30
2023-05-25T09:40:09.496Z,6.60
2023-05-25T09:42:38.149Z,4.80
2023-05-25T09:45:07.074Z,5.80
2023-05-25T09:47:37.683Z,5.60
2023-05-25T09:50:07.080Z,3.80
2023-05-25T09:52:36.799Z,4.60
2023-05-25T09:55:09.911Z,4.60
2023-05-25T09:57:37.977Z,4.50
2023-05-25T10:00:07.078Z,3.80
2023-05-25T10:02:39.747Z,2.90
2023-05-25T10:05:09.104Z,4.10
2023-05-25T10:07:38.618Z,4.40
2023-05-25T10:10:08.465Z,6.90
2023-05-25T10:12:37.680Z,4.20
2023-05-25T10:15:07.877Z,4.20
2023-05-25T10:17:41.618Z,7.80
2023-05-25T10:20:11.146Z,5.10
2023-05-25T10:22:54.375Z,4.50
2023-05-25T10:25:44.137Z,4.50
2023-05-25T10:28:20.234Z,3.00
2023-05-25T10:30:49.947Z,6.40
2023-05-25T10:33:20.229Z,4.00
2023-05-25T10:36:02.240Z,4.60
2023-05-25T10:38:39.573Z,2.80
2023-05-25T10:41:10.090Z,2.30
2023-05-25T10:43:41.598Z,4.70
2023-05-25T10:46:10.069Z,4.70
2023-05-25T10:48:39.453Z,2.80
2023-05-25T10:51:09.325Z,3.30
2023-05-25T10:53:43.856Z,4.30
2023-05-25T10:56:13.437Z,4.00
2023-05-25T10:58:46.572Z,3.70
2023-05-25T11:01:16.230Z,2.70
2023-05-25T11:03:44.858Z,2.20
2023-05-25T11:06:21.820Z,4.20
2023-05-25T11:08:59.064Z,3.80
2023-05-25T11:11:42.157Z,3.50
2023-05-25T11:14:31.473Z,4.40
2023-05-25T11:17:18.719Z,4.30
2023-05-25T11:19:52.240Z,2.90
2023-05-25T11:22:22.940Z,3.00
2023-05-25T11:24:53.498Z,5.70
2023-05-25T11:27:27.430Z,2.20
2023-05-25T11:29:59.358Z,2.60
2023-05-25T11:32:28.341Z,2.90
2023-05-25T11:34:58.498Z,3.70
2023-05-25T11:37:31.789Z,2.80
2023-05-25T11:40:00.476Z,4.00
2023-05-25T11:42:29.461Z,2.20
2023-05-25T11:45:03.216Z,3.50
2023-05-25T11:47:33.102Z,2.80
2023-05-25T11:50:02.123Z,3.70
2023-05-25T11:52:30.638Z,4.40
2023-05-25T11:54:59.025Z,3.00
2023-05-25T11:57:27.072Z,5.40
2023-05-25T11:59:57.391Z,3.90
2023-05-25T12:02:26.185Z,3.60
2023-05-25T12:04:56.109Z,3.40
2023-05-25T12:07:26.345Z,3.80
2023-05-25T12:10:17.852Z,2.90
2023-05-25T12:15:24.918Z,3.30
2023-05-25T12:17:54.457Z,6.00
2023-05-25T12:20:23.117Z,2.50
2023-05-25T12:22:51.679Z,2.30
2023-05-25T12:25:21.946Z,2.60
2023-05-25T12:28:10.097Z,2.20
2023-05-25T12:30:38.331Z,4.30
2023-05-25T12:33:07.106Z,2.80
2023-05-25T12:35:49.485Z,4.20
2023-05-25T12:38:19.696Z,6.50
2023-05-25T12:40:48.286Z,2.40
2023-05-25T12:43:17.745Z,4.10
2023-05-25T12:45:46.251Z,6.00
2023-05-25T12:48:14.389Z,5.40
2023-05-25T12:50:58.464Z,3.00
2023-05-25T12:53:27.405Z,4.20
2023-05-25T12:56:04.746Z,3.40
2023-05-25T12:58:32.915Z,4.60
2023-05-25T13:01:01.082Z,4.40
2023-05-25T13:03:29.193Z,3.20
2023-05-25T13:06:01.428Z,4.80
2023-05-25T13:08:29.807Z,2.60
2023-05-25T13:10:57.850Z,2.60
2023-05-25T13:13:25.829Z,4.30
2023-05-25T13:15:53.921Z,3.90
2023-05-25T13:18:22.161Z,4.70
2023-05-25T13:20:53.337Z,4.20
2023-05-25T13:23:23.329Z,5.70
2023-05-25T13:25:51.824Z,3.80
2023-05-25T13:28:19.839Z,5.50
2023-05-25T13:30:47.811Z,3.30
2023-05-25T13:33:16.017Z,4.40
2023-05-25T13:35:58.472Z,3.80
2023-05-25T13:38:27.223Z,3.40
2023-05-25T13:40:55.306Z,3.80
2023-05-25T13:43:23.376Z,2.90
2023-05-25T13:45:51.451Z,5.90
2023-05-25T13:48:19.645Z,4.70
2023-05-25T13:50:47.938Z,3.90
2023-05-25T13:53:16.383Z,5.60
2023-05-25T13:55:44.330Z,3.70
2023-05-25T13:58:12.269Z,3.80
2023-05-25T14:00:40.462Z,5.70
2023-05-25T14:03:08.847Z,6.30
2023-05-25T14:05:37.152Z,3.60
2023-05-25T14:08:05.568Z,3.70
2023-05-25T14:10:33.651Z,3.20
2023-05-25T14:13:01.626Z,3.90
2023-05-25T14:15:29.645Z,7.90
2023-05-25T14:17:57.809Z,3.30
2023-05-25T14:20:26.646Z,4.00
2023-05-25T14:22:55.323Z,5.20
2023-05-25T14:25:23.663Z,3.10
2023-05-25T14:27:51.829Z,6.40
2023-05-25T14:30:19.914Z,3.90
2023-05-25T14:32:48.307Z,3.50
2023-05-25T14:35:16.661Z,10.20
2023-05-25T14:37:44.796Z,4.00
2023-05-25T14:40:13.526Z,2.80
2023-05-25T14:42:41.610Z,4.40
2023-05-25T14:45:11.618Z,5.70
2023-05-25T14:47:40.842Z,4.10
2023-05-25T14:50:09.271Z,4.30
2023-05-25T14:52:37.479Z,4.70
2023-05-25T14:55:06.035Z,4.60
2023-05-25T14:57:33.992Z,2.70
2023-05-25T15:00:02.264Z,4.30
2023-05-25T15:15:52.631Z,4.00
2023-05-25T15:18:20.756Z,3.50
2023-05-25T15:20:49.186Z,4.60
2023-05-25T15:23:17.768Z,5.80
2023-05-25T15:25:45.791Z,4.20
2023-05-25T15:28:14.254Z,6.80
2023-05-25T15:30:42.296Z,5.40
2023-05-25T15:33:10.502Z,7.60
2023-05-25T15:35:38.591Z,7.00
2023-05-25T15:38:06.641Z,8.40
2023-05-25T15:40:37.119Z,7.20
2023-05-25T15:43:05.744Z,7.60
2023-05-25T15:45:33.803Z,3.70
2023-05-25T15:48:02.029Z,10.20
2023-05-25T15:50:30.580Z,12.70
2023-05-25T15:52:58.725Z,20.70
2023-05-25T15:55:26.948Z,22.80
2023-05-25T15:57:55.004Z,23.50
2023-05-25T16:00:23.225Z,22.20
2023-05-25T16:02:52.534Z,11.20
2023-05-25T16:05:21.191Z,7.40
2023-05-25T16:07:49.336Z,8.20
2023-05-25T16:10:17.277Z,14.90
2023-05-25T16:12:45.881Z,15.50
2023-05-25T16:15:14.070Z,7.10
2023-05-25T16:17:42.417Z,8.60
2023-05-25T16:20:10.914Z,15.60
2023-05-25T16:22:39.110Z,14.10
2023-05-25T16:25:08.166Z,14.10
2023-05-25T16:27:36.121Z,8.40
2023-05-25T16:30:04.726Z,8.20
2023-05-25T16:32:33.038Z,7.20
2023-05-25T16:35:01.788Z,5.70
2023-05-25T16:37:29.893Z,7.70
2023-05-25T16:39:58.116Z,10.20
2023-05-25T16:42:26.542Z,7.50
2023-05-25T16:44:54.610Z,8.90
2023-05-25T16:47:22.774Z,8.60
2023-05-25T16:49:50.914Z,11.00
2023-05-25T16:52:19.312Z,12.00
2023-05-25T16:54:47.406Z,10.50
2023-05-25T16:57:15.314Z,7.80
2023-05-25T16:59:43.465Z,7.90
2023-05-25T17:02:12.745Z,6.50
2023-05-25T17:04:40.815Z,7.10
2023-05-25T17:07:08.927Z,9.30
2023-05-25T17:09:36.953Z,8.60
2023-05-25T17:12:06.484Z,7.00
2023-05-25T17:14:34.614Z,7.20
2023-05-25T17:17:02.783Z,8.30
2023-05-25T17:19:30.779Z,8.00
2023-05-25T17:21:58.948Z,8.40
2023-05-25T17:24:27.064Z,8.10
2023-05-25T17:26:55.133Z,9.90
2023-05-25T17:29:23.193Z,14.40
2023-05-25T17:31:51.582Z,12.40
2023-05-25T17:34:20.182Z,11.50
2023-05-25T17:36:48.459Z,7.90
2023-05-25T17:39:18.838Z,6.80
2023-05-25T17:41:47.709Z,8.50
2023-05-25T17:44:17.412Z,8.50
2023-05-25T17:46:45.478Z,5.30
2023-05-25T17:49:13.496Z,5.90
2023-05-25T17:51:41.714Z,7.80
2023-05-25T17:54:15.356Z,8.40
2023-05-25T17:56:43.338Z,5.70
2023-05-25T17:59:11.355Z,7.90
2023-05-25T18:01:40.738Z,7.30
2023-05-25T18:04:09.488Z,5.20
2023-05-25T18:06:37.759Z,7.30
2023-05-25T18:09:05.900Z,5.30
2023-05-25T18:11:33.833Z,10.80
2023-05-25T18:14:01.988Z,7.00
2023-05-25T18:16:30.084Z,5.20
2023-05-25T18:18:58.297Z,7.70
2023-05-25T18:21:26.764Z,7.00
2023-05-25T18:23:54.969Z,10.20
2023-05-25T18:26:23.620Z,13.30
2023-05-25T18:28:51.683Z,19.70
2023-05-25T18:31:19.983Z,12.10
2023-05-25T18:33:48.329Z,7.70
2023-05-25T18:36:18.461Z,7.70
2023-05-25T18:38:46.454Z,6.90
2023-05-25T18:41:14.479Z,6.60
2023-05-25T18:43:42.470Z,6.50
2023-05-25T18:46:10.703Z,7.00
2023-05-25T18:48:38.762Z,5.40
2023-05-25T18:51:06.794Z,5.20
2023-05-25T18:53:34.846Z,6.80
2023-05-25T18:56:02.754Z,5.00
2023-05-25T18:58:31.317Z,5.10
2023-05-25T19:00:59.517Z,5.30
2023-05-25T19:03:27.821Z,5.70
2023-05-25T19:05:56.136Z,4.50
2023-05-25T19:08:24.092Z,6.00
2023-05-25T19:10:52.571Z,8.40
2023-05-25T19:13:22.897Z,4.90
2023-05-25T19:15:51.050Z,7.80
2023-05-25T19:18:19.596Z,7.30
2023-05-25T19:20:47.868Z,9.80
2023-05-25T19:23:16.118Z,6.00
2023-05-25T19:25:44.384Z,4.20
2023-05-25T19:28:13.288Z,4.40
2023-05-25T19:30:41.349Z,5.30
2023-05-25T19:33:09.399Z,4.30
2023-05-25T19:35:37.597Z,6.00
2023-05-25T19:38:05.660Z,5.00
2023-05-25T19:40:34.041Z,8.20
2023-05-25T19:43:02.266Z,9.40
2023-05-25T19:45:30.726Z,8.70
2023-05-25T19:47:59.231Z,7.80
2023-05-25T19:50:30.664Z,8.10
2023-05-25T19:53:00.342Z,6.00
2023-05-25T19:55:28.936Z,13.40
2023-05-25T19:57:57.148Z,8.70
2023-05-25T20:00:26.977Z,9.70
2023-05-25T20:02:55.953Z,5.70
2023-05-25T20:05:24.986Z,7.20
2023-05-25T20:07:55.187Z,4.80
2023-05-25T20:10:23.513Z,5.80
2023-05-25T20:12:51.693Z,6.10
2023-05-25T20:15:20.032Z,8.10
2023-05-25T20:17:48.537Z,6.90
2023-05-25T20:20:16.618Z,8.70
2023-05-25T20:22:44.771Z,6.40
2023-05-25T20:25:13.156Z,6.20
2023-05-25T20:27:41.649Z,6.50
2023-05-25T20:30:10.767Z,4.10
2023-05-25T20:32:38.964Z,4.00
2023-05-25T20:35:07.679Z,8.90
2023-05-25T20:37:36.274Z,7.30
2023-05-25T20:40:06.825Z,4.40
2023-05-25T20:42:35.015Z,7.30
2023-05-25T20:45:03.926Z,6.70
2023-05-25T20:47:31.904Z,4.00
2023-05-25T20:50:00.427Z,5.40
2023-05-25T20:52:28.464Z,6.30
2023-05-25T20:54:56.798Z,5.80
2023-05-25T20:57:25.259Z,5.60
2023-05-25T20:59:54.454Z,4.50
2023-05-25T21:02:22.474Z,4.90
2023-05-25T21:04:50.897Z,4.60
2023-05-25T21:07:20.130Z,4.60
2023-05-25T21:09:48.251Z,10.40
2023-05-25T21:12:16.963Z,7.00
2023-05-25T21:14:45.036Z,9.90
2023-05-25T21:17:15.012Z,4.20
2023-05-25T21:19:43.095Z,6.20
2023-05-25T21:22:11.679Z,8.20
2023-05-25T21:24:39.690Z,4.50
2023-05-25T21:27:07.952Z,3.70
2023-05-25T21:29:35.985Z,6.50
2023-05-25T21:32:04.581Z,4.00
2023-05-25T21:34:32.572Z,5.20
2023-05-25T21:37:00.845Z,4.10
2023-05-25T21:39:28.991Z,6.40
2023-05-25T21:41:57.088Z,4.30
2023-05-25T21:44:25.377Z,4.60
2023-05-25T21:46:54.106Z,5.90
2023-05-25T21:49:25.371Z,3.80
2023-05-25T21:51:54.403Z,4.00
2023-05-25T21:54:24.093Z,4.70
2023-05-25T21:56:52.912Z,4.70
2023-05-25T21:59:20.997Z,3.90
2023-05-25T22:01:50.333Z,6.40
2023-05-25T22:04:18.519Z,5.10
2023-05-25T22:06:47.919Z,4.30
2023-05-25T22:09:16.391Z,5.00
2023-05-25T22:11:44.722Z,5.20
2023-05-25T22:14:13.247Z,5.30
2023-05-25T22:16:41.347Z,3.30
2023-05-25T22:19:09.425Z,5.30
2023-05-25T22:21:37.983Z,4.70
2023-05-25T22:24:06.154Z,7.40
2023-05-25T22:26:34.152Z,6.60
2023-05-25T22:29:02.342Z,7.00
2023-05-25T22:31:30.542Z,5.40
2023-05-25T22:33:58.606Z,5.00
2023-05-25T22:36:26.734Z,5.00
2023-05-25T22:38:55.006Z,7.30
2023-05-25T22:41:29.089Z,6.70
2023-05-25T22:43:57.084Z,6.10
2023-05-25T22:46:26.520Z,6.50
2023-05-25T22:48:54.644Z,7.60
2023-05-25T22:51:22.710Z,6.40
2023-05-25T22:53:51.011Z,6.60
2023-05-25T22:56:18.983Z,4.90
2023-05-25T22:58:46.975Z,5.60
2023-05-25T23:01:15.369Z,6.40
2023-05-25T23:03:43.521Z,5.40
2023-05-25T23:06:11.961Z,5.60
2023-05-25T23:08:40.158Z,4.20
2023-05-25T23:11:08.144Z,3.90
2023-05-25T23:13:37.109Z,3.40
2023-05-25T23:16:05.568Z,6.20
2023-05-25T23:18:33.688Z,7.10
2023-05-25T23:21:01.764Z,5.10
2023-05-25T23:23:31.221Z,3.90
2023-05-25T23:25:59.413Z,5.20
2023-05-25T23:28:28.369Z,7.10
2023-05-25T23:30:58.830Z,4.10
2023-05-25T23:33:26.933Z,5.60
2023-05-25T23:35:54.998Z,5.00
2023-05-25T23:38:25.095Z,5.10
2023-05-25T23:40:53.154Z,4.30
2023-05-25T23:43:21.341Z,4.20
2023-05-25T23:45:49.535Z,5.60
2023-05-25T23:48:18.028Z,4.20
2023-05-25T23:50:46.143Z,3.90
2023-05-25T23:53:15.239Z,3.90
2023-05-25T23:55:43.417Z,7.20
2023-05-25T23:58:11.735Z,5.60
